createdAt,value
2018-07-04T00:03:07.105Z,13.51
2018-07-04T00:09:02.150Z,12.75
2018-07-04T00:14:57.106Z,13.05
2018-07-04T00:20:52.185Z,12.82
2018-07-04T00:26:47.148Z,12.95
2018-07-04T00:32:42.131Z,13.03
2018-07-04T00:38:37.186Z,12.72
2018-07-04T00:44:32.188Z,12.93
2018-07-04T00:50:27.158Z,12.41
2018-07-04T00:56:22.203Z,12.97
2018-07-04T01:02:17.218Z,12.74
2018-07-04T01:08:12.167Z,11.93
2018-07-04T01:14:07.151Z,12.71
2018-07-04T01:20:02.216Z,12.68
2018-07-04T01:25:57.210Z,12.41
2018-07-04T01:31:52.218Z,12.31
2018-07-04T01:37:47.183Z,11.23
2018-07-04T01:43:42.205Z,12.44
2018-07-04T01:49:37.196Z,11.69
2018-07-04T01:55:32.171Z,12.71
2018-07-04T02:01:27.212Z,12.53
2018-07-04T02:07:22.199Z,12.96
2018-07-04T02:13:17.275Z,13.7
2018-07-04T02:19:12.241Z,14.03
2018-07-04T02:25:07.229Z,14.4
2018-07-04T02:31:02.217Z,13.97
2018-07-04T02:36:57.231Z,14.67
2018-07-04T02:42:52.296Z,14.58
2018-07-04T02:48:47.237Z,14.91
2018-07-04T02:54:42.253Z,14.31
2018-07-04T03:00:37.249Z,13.71
2018-07-04T03:06:32.269Z,14.08
2018-07-04T03:12:27.222Z,14.48
2018-07-04T03:18:22.279Z,13.5
2018-07-04T03:24:17.268Z,13.39
2018-07-04T03:30:12.306Z,13.27
2018-07-04T03:36:07.241Z,13.76
2018-07-04T03:42:02.268Z,14.13
2018-07-04T03:47:57.253Z,13.62
2018-07-04T03:53:52.276Z,13.33
2018-07-04T03:59:47.301Z,13.58
2018-07-04T04:05:42.395Z,12.86
2018-07-04T04:11:37.306Z,12.97
2018-07-04T04:17:32.263Z,12.4
2018-07-04T04:23:27.315Z,14.52
2018-07-04T04:29:22.301Z,13.9
2018-07-04T04:35:17.310Z,14.49
2018-07-04T04:41:12.352Z,14.31
2018-07-04T04:47:07.319Z,15.7
2018-07-04T04:53:02.398Z,13.97
2018-07-04T04:58:57.345Z,14.53
2018-07-04T05:04:52.440Z,13.14
2018-07-04T05:10:47.331Z,14.13
2018-07-04T05:16:42.351Z,13.27
2018-07-04T05:22:37.331Z,12.86
2018-07-04T05:28:32.353Z,12.88
2018-07-04T05:34:27.360Z,11.35
2018-07-04T05:40:22.479Z,11.89
2018-07-04T05:46:17.395Z,11.75
2018-07-04T05:52:12.398Z,11.02
2018-07-04T05:58:07.361Z,10.91
2018-07-04T06:04:02.374Z,11.79
2018-07-04T06:09:57.364Z,11.47
2018-07-04T06:15:52.372Z,12.58
2018-07-04T06:21:47.445Z,12.3
2018-07-04T06:27:42.368Z,12.42
2018-07-04T06:33:37.426Z,12
2018-07-04T06:39:32.415Z,13.12
2018-07-04T06:45:27.382Z,13.55
2018-07-04T06:51:22.522Z,13.02
2018-07-04T06:57:17.407Z,12.87
2018-07-04T07:03:12.421Z,13.36
2018-07-04T07:09:07.432Z,15.6
2018-07-04T07:15:02.862Z,13.31
2018-07-04T07:20:57.462Z,13.03
2018-07-04T07:26:52.423Z,13.46
2018-07-04T07:32:47.467Z,13.11
2018-07-04T07:38:42.424Z,11.87
2018-07-04T07:44:37.498Z,13.31
2018-07-04T07:50:32.432Z,13.68
2018-07-04T07:56:27.455Z,13.06
2018-07-04T08:02:22.487Z,11.96
2018-07-04T08:08:17.468Z,13.39
2018-07-04T08:14:12.516Z,11.73
2018-07-04T08:20:07.452Z,11.45
2018-07-04T08:26:02.533Z,10.19
2018-07-04T08:31:57.561Z,9.23
2018-07-04T08:37:52.459Z,9.13
2018-07-04T08:43:47.464Z,8.98
2018-07-04T08:49:42.479Z,8.61
2018-07-04T08:55:37.598Z,8.78
2018-07-04T09:01:32.473Z,10.91
2018-07-04T09:07:27.538Z,8.06
2018-07-04T09:13:22.516Z,8.34
2018-07-04T09:19:17.503Z,8.08
2018-07-04T09:25:12.571Z,6.58
2018-07-04T09:31:07.529Z,9.46
2018-07-04T09:37:02.608Z,6.67
2018-07-04T09:42:57.529Z,6.24
2018-07-04T09:48:52.577Z,6.66
2018-07-04T09:54:47.908Z,6.08
2018-07-04T10:00:42.568Z,5.79
2018-07-04T10:06:37.615Z,5.68
2018-07-04T10:12:32.589Z,6.19
2018-07-04T10:18:27.557Z,5.79
2018-07-04T10:24:22.582Z,4.76
2018-07-04T10:30:17.953Z,5.49
2018-07-04T10:36:12.612Z,5.35
2018-07-04T10:42:07.722Z,5.44
2018-07-04T10:48:02.733Z,5.23
2018-07-04T10:53:57.639Z,4.82
2018-07-04T10:59:52.613Z,4.03
2018-07-04T11:05:47.590Z,4.24
2018-07-04T11:11:42.594Z,3.04
2018-07-04T11:17:37.581Z,3.1
2018-07-04T11:23:32.681Z,3.03
2018-07-04T11:29:27.611Z,2.92
2018-07-04T11:35:22.674Z,3.93
2018-07-04T11:41:17.627Z,3.73
2018-07-04T11:47:12.642Z,3.37
2018-07-04T11:53:07.658Z,3.41
2018-07-04T11:59:02.693Z,3.61
2018-07-04T12:04:57.657Z,3.69
2018-07-04T12:10:52.654Z,3.11
2018-07-04T12:16:47.660Z,3.58
2018-07-04T12:22:42.678Z,3.76
2018-07-04T12:28:37.665Z,3.85
2018-07-04T12:34:32.694Z,3.5
2018-07-04T12:40:27.763Z,3.43
2018-07-04T12:46:22.654Z,3.62
2018-07-04T12:52:17.702Z,3.5
2018-07-04T12:58:12.676Z,3.19
2018-07-04T13:04:07.700Z,2.9
2018-07-04T13:10:02.953Z,3.32
2018-07-04T13:15:57.805Z,3.31
2018-07-04T13:21:52.778Z,3.39
2018-07-04T13:27:47.719Z,3.69
2018-07-04T13:33:42.727Z,3.53
2018-07-04T13:39:37.712Z,3.72
2018-07-04T13:45:32.800Z,4.14
2018-07-04T13:51:27.717Z,4.1
2018-07-04T13:57:22.839Z,4.02
2018-07-04T14:03:17.780Z,4.08
2018-07-04T14:09:12.747Z,4.92
2018-07-04T14:15:07.840Z,5.03
2018-07-04T14:21:02.816Z,4.8
2018-07-04T14:26:57.838Z,4.75
2018-07-04T14:32:52.769Z,5.07
2018-07-04T14:38:47.891Z,5.34
2018-07-04T14:44:42.789Z,5.49
2018-07-04T14:50:37.785Z,4.76
2018-07-04T14:56:32.827Z,5.32
2018-07-04T15:02:27.765Z,5.49
2018-07-04T15:08:22.797Z,5.9
2018-07-04T15:14:17.773Z,5.8
2018-07-04T15:20:12.806Z,6.35
2018-07-04T15:26:07.861Z,6.89
2018-07-04T15:32:02.815Z,6.33
2018-07-04T15:37:57.861Z,6.73
2018-07-04T15:43:52.844Z,7.11
2018-07-04T15:49:47.833Z,6.79
2018-07-04T15:55:42.841Z,7.27
2018-07-04T16:01:37.835Z,7.19
2018-07-04T16:07:32.832Z,7.79
2018-07-04T16:13:27.832Z,7.15
2018-07-04T16:19:22.878Z,8.01
2018-07-04T16:25:17.930Z,7.75
2018-07-04T16:31:12.891Z,7.77
2018-07-04T16:37:07.854Z,8.15
2018-07-04T16:43:02.905Z,7.35
2018-07-04T16:48:58.022Z,7.05
2018-07-04T16:54:52.912Z,7.68
2018-07-04T17:00:47.889Z,7.24
2018-07-04T17:06:42.960Z,7.56
2018-07-04T17:12:37.968Z,7.57
2018-07-04T17:18:32.872Z,7.51
2018-07-04T17:24:27.934Z,7.37
2018-07-04T17:30:22.941Z,7.41
2018-07-04T17:36:17.959Z,7.49
2018-07-04T17:42:13.085Z,8.19
2018-07-04T17:48:07.901Z,8.32
2018-07-04T17:54:02.898Z,8.3
2018-07-04T17:59:57.973Z,7.61
2018-07-04T18:05:53.015Z,9.01
2018-07-04T18:11:47.973Z,7.63
2018-07-04T18:17:42.997Z,8.26
2018-07-04T18:23:37.931Z,8.22
2018-07-04T18:29:32.954Z,8.57
2018-07-04T18:35:27.951Z,8.26
2018-07-04T18:41:22.990Z,8.56
2018-07-04T18:47:17.983Z,8.94
2018-07-04T18:53:13.028Z,9.17
2018-07-04T18:59:07.970Z,9.53
2018-07-04T19:05:03.001Z,9.18
2018-07-04T19:10:58.028Z,9.27
2018-07-04T19:16:52.977Z,9.43
2018-07-04T19:22:47.992Z,10.57
2018-07-04T19:28:42.993Z,10.16
2018-07-04T19:34:37.998Z,10.58
2018-07-04T19:40:33.104Z,9.87
2018-07-04T19:46:28.091Z,10.72
2018-07-04T19:52:23.079Z,10.93
2018-07-04T19:58:18.018Z,10.74
2018-07-04T20:04:13.046Z,11.06
2018-07-04T20:10:08.064Z,10.49
2018-07-04T20:16:03.158Z,11.24
2018-07-04T20:21:58.058Z,11.25
2018-07-04T20:27:53.103Z,11.83
2018-07-04T20:33:48.027Z,10.83
2018-07-04T20:39:43.059Z,10.72
2018-07-04T20:45:38.066Z,10.74
2018-07-04T20:51:33.060Z,11.09
2018-07-04T20:57:28.036Z,10.7
2018-07-04T21:03:23.058Z,12.29
2018-07-04T21:09:18.075Z,10.93
2018-07-04T21:15:13.072Z,11.43
2018-07-04T21:21:08.070Z,11.7
2018-07-04T21:27:03.088Z,11.95
2018-07-04T21:32:58.048Z,12.03
2018-07-04T21:38:53.096Z,12.21
2018-07-04T21:44:48.132Z,11.66
2018-07-04T21:50:43.103Z,12.38
2018-07-04T21:56:38.090Z,12.09
2018-07-04T22:02:33.137Z,13.29
2018-07-04T22:08:28.155Z,12
2018-07-04T22:14:23.115Z,11.94
2018-07-04T22:20:18.154Z,12.08
2018-07-04T22:26:13.230Z,12.24
2018-07-04T22:32:08.098Z,12.35
2018-07-04T22:38:03.127Z,11.96
2018-07-04T22:43:58.131Z,12.33
2018-07-04T22:49:53.130Z,12.97
2018-07-04T22:55:48.127Z,12.11
2018-07-04T23:01:43.112Z,12.31
2018-07-04T23:07:38.195Z,12.67
2018-07-04T23:13:33.128Z,13
2018-07-04T23:19:28.178Z,12.88
2018-07-04T23:25:23.223Z,13.37
2018-07-04T23:31:18.171Z,12.44
2018-07-04T23:37:13.165Z,12.7
2018-07-04T23:43:08.168Z,13.31
2018-07-04T23:49:03.165Z,12.63
2018-07-04T23:54:58.197Z,13.03
